createdAt,value
2023-04-12T00:00:11.727Z,57.90
2023-04-12T00:02:39.729Z,58.98
2023-04-12T00:05:09.405Z,58.91
2023-04-12T00:07:35.984Z,59.47
2023-04-12T00:10:03.137Z,59.00
2023-04-12T00:12:29.504Z,59.27
2023-04-12T00:14:56.050Z,60.23
2023-04-12T00:17:22.439Z,60.56
2023-04-12T00:19:49.962Z,61.01
2023-04-12T00:22:16.781Z,61.17
2023-04-12T00:24:43.568Z,61.37
2023-04-12T00:27:09.997Z,61.49
2023-04-12T00:29:36.387Z,62.40
2023-04-12T00:32:03.834Z,63.17
2023-04-12T00:34:30.416Z,63.36
2023-04-12T00:36:56.756Z,64.22
2023-04-12T00:39:23.322Z,63.09
2023-04-12T00:41:49.657Z,62.64
2023-04-12T00:44:17.976Z,62.84
2023-04-12T00:46:46.363Z,62.88
2023-04-12T00:49:13.255Z,63.14
2023-04-12T00:51:39.729Z,63.54
2023-04-12T00:54:06.892Z,64.16
2023-04-12T00:56:34.397Z,63.45
2023-04-12T00:59:02.002Z,64.40
2023-04-12T01:01:28.484Z,64.59
2023-04-12T01:04:00.920Z,64.75
2023-04-12T01:06:46.551Z,64.56
2023-04-12T01:09:40.453Z,64.51
2023-04-12T01:12:48.650Z,65.59
2023-04-12T01:15:16.476Z,65.26
2023-04-12T01:18:08.117Z,64.89
2023-04-12T01:20:48.274Z,63.88
2023-04-12T01:23:28.779Z,64.50
2023-04-12T01:26:02.753Z,63.52
2023-04-12T01:28:33.945Z,63.58
2023-04-12T01:31:04.179Z,64.11
2023-04-12T01:33:31.771Z,63.44
2023-04-12T01:36:00.818Z,64.32
2023-04-12T01:38:27.709Z,63.45
2023-04-12T01:40:54.878Z,62.41
2023-04-12T01:43:21.313Z,62.97
2023-04-12T01:45:47.814Z,62.79
2023-04-12T01:48:14.328Z,62.88
2023-04-12T01:51:04.442Z,62.41
2023-04-12T01:53:54.546Z,63.05
2023-04-12T01:56:22.762Z,63.28
2023-04-12T01:58:53.406Z,64.05
2023-04-12T02:01:19.986Z,64.82
2023-04-12T02:03:49.955Z,63.68
2023-04-12T02:06:20.751Z,64.05
2023-04-12T02:08:47.925Z,64.75
2023-04-12T02:11:14.765Z,64.17
2023-04-12T02:13:41.266Z,64.96
2023-04-12T02:16:10.563Z,64.74
2023-04-12T02:18:37.002Z,65.76
2023-04-12T02:21:03.344Z,64.72
2023-04-12T02:23:29.734Z,64.86
2023-04-12T02:25:56.363Z,64.57
2023-04-12T02:28:23.188Z,64.90
2023-04-12T02:30:53.339Z,64.95
2023-04-12T02:33:25.337Z,64.71
2023-04-12T02:35:52.337Z,65.52
2023-04-12T02:38:18.740Z,66.48
2023-04-12T02:40:45.114Z,66.15
2023-04-12T02:43:11.502Z,66.23
2023-04-12T02:45:38.027Z,67.24
2023-04-12T02:48:05.262Z,67.94
2023-04-12T02:50:31.751Z,67.93
2023-04-12T02:52:58.095Z,69.30
2023-04-12T02:55:25.647Z,68.21
2023-04-12T02:57:52.069Z,68.39
2023-04-12T03:00:18.619Z,67.36
2023-04-12T03:02:45.232Z,68.36
2023-04-12T03:05:12.333Z,66.97
2023-04-12T03:07:38.733Z,66.44
2023-04-12T03:10:07.343Z,65.98
2023-04-12T03:12:33.734Z,66.13
2023-04-12T03:15:00.083Z,66.73
2023-04-12T03:17:26.567Z,65.41
2023-04-12T03:19:52.966Z,67.06
2023-04-12T03:22:19.324Z,66.75
2023-04-12T03:24:46.514Z,66.22
2023-04-12T03:27:12.963Z,65.72
2023-04-12T03:29:39.396Z,65.75
2023-04-12T03:32:05.952Z,66.25
2023-04-12T03:34:32.509Z,65.25
2023-04-12T03:37:00.883Z,65.27
2023-04-12T03:39:27.644Z,65.34
2023-04-12T03:41:54.304Z,66.87
2023-04-12T03:44:21.288Z,66.37
2023-04-12T03:46:48.672Z,66.26
2023-04-12T03:49:16.464Z,67.79
2023-04-12T03:51:43.473Z,67.41
2023-04-12T03:54:11.288Z,67.09
2023-04-12T03:56:38.457Z,66.89
2023-04-12T03:59:07.682Z,67.93
2023-04-12T04:01:34.888Z,69.61
2023-04-12T04:04:02.159Z,69.80
2023-04-12T04:06:29.773Z,69.75
2023-04-12T04:08:57.243Z,69.09
2023-04-12T04:11:24.872Z,70.12
2023-04-12T04:13:51.796Z,72.58
2023-04-12T04:16:18.268Z,74.14
2023-04-12T04:18:44.778Z,74.98
2023-04-12T04:21:11.138Z,75.34
2023-04-12T04:23:40.627Z,75.49
2023-04-12T04:26:10.537Z,77.59
2023-04-12T04:28:44.926Z,77.81
2023-04-12T04:31:12.962Z,78.26
2023-04-12T04:33:40.151Z,79.51
2023-04-12T04:36:09.893Z,79.22
2023-04-12T04:38:36.315Z,79.96
2023-04-12T04:41:03.322Z,80.44
2023-04-12T04:43:30.745Z,80.40
2023-04-12T04:45:58.194Z,80.76
2023-04-12T04:48:24.881Z,81.46
2023-04-12T04:50:54.258Z,81.33
2023-04-12T04:53:22.323Z,82.03
2023-04-12T04:55:48.981Z,82.56
2023-04-12T04:58:16.495Z,83.03
2023-04-12T05:00:44.842Z,83.17
2023-04-12T05:03:11.874Z,83.38
2023-04-12T05:05:38.469Z,83.63
2023-04-12T05:08:05.523Z,84.21
2023-04-12T05:10:31.922Z,84.63
2023-04-12T05:12:58.245Z,84.62
2023-04-12T05:15:24.568Z,85.53
2023-04-12T05:17:51.139Z,85.83
2023-04-12T05:20:18.358Z,85.50
2023-04-12T05:22:44.833Z,86.50
2023-04-12T05:25:13.816Z,85.31
2023-04-12T05:27:40.231Z,84.87
2023-04-12T05:30:07.961Z,85.76
2023-04-12T05:32:36.736Z,85.87
2023-04-12T05:35:03.411Z,86.19
2023-04-12T05:37:32.049Z,86.77
2023-04-12T05:40:01.157Z,87.14
2023-04-12T05:42:28.537Z,88.07
2023-04-12T05:44:56.380Z,88.00
2023-04-12T05:47:22.831Z,87.27
2023-04-12T05:49:49.535Z,87.37
2023-04-12T05:52:18.729Z,87.69
2023-04-12T05:54:45.178Z,87.87
2023-04-12T05:57:12.394Z,88.32
2023-04-12T05:59:41.022Z,87.82
2023-04-12T06:02:08.668Z,87.06
2023-04-12T06:04:49.249Z,87.28
2023-04-12T06:07:18.951Z,88.04
2023-04-12T06:09:45.484Z,88.20
2023-04-12T06:12:11.942Z,88.40
2023-04-12T06:14:38.355Z,88.81
2023-04-12T06:17:04.811Z,88.67
2023-04-12T06:19:31.347Z,88.66
2023-04-12T06:21:57.730Z,88.77
2023-04-12T06:24:24.103Z,87.78
2023-04-12T06:26:50.607Z,88.33
2023-04-12T06:29:21.505Z,88.24
2023-04-12T06:31:48.392Z,88.79
2023-04-12T06:34:15.877Z,90.03
2023-04-12T06:36:43.454Z,90.46
2023-04-12T06:39:11.949Z,89.98
2023-04-12T06:41:38.352Z,89.91
2023-04-12T06:44:06.227Z,89.75
2023-04-12T06:46:32.677Z,89.69
2023-04-12T06:48:59.337Z,90.46
2023-04-12T06:51:26.009Z,90.64
2023-04-12T06:53:56.121Z,91.55
2023-04-12T06:56:22.502Z,90.86
2023-04-12T06:58:48.974Z,90.47
2023-04-12T07:01:17.762Z,89.91
2023-04-12T07:03:44.456Z,89.43
2023-04-12T07:06:23.724Z,89.53
2023-04-12T07:08:51.219Z,89.25
2023-04-12T07:11:21.547Z,88.69
2023-04-12T07:13:51.358Z,88.99
2023-04-12T07:16:18.461Z,88.21
2023-04-12T07:18:48.342Z,89.16
2023-04-12T07:21:17.243Z,89.97
2023-04-12T07:23:46.815Z,89.44
2023-04-12T07:26:13.247Z,90.45
2023-04-12T07:29:13.279Z,91.25
2023-04-12T07:31:39.792Z,91.15
2023-04-12T07:37:17.920Z,91.48
2023-04-12T07:43:31.294Z,92.80
2023-04-12T07:47:01.283Z,93.58
2023-04-12T07:53:52.520Z,93.95
2023-04-12T08:15:33.982Z,93.52
2023-04-12T08:18:01.315Z,93.72
2023-04-12T08:20:27.848Z,94.75
2023-04-12T08:22:54.864Z,94.52
2023-04-12T08:25:22.070Z,96.30
2023-04-12T08:27:49.802Z,95.09
2023-04-12T08:30:19.480Z,95.89
2023-04-12T08:36:52.894Z,98.03
2023-04-12T08:39:24.253Z,98.10
2023-04-12T08:45:38.175Z,98.04
2023-04-12T08:48:05.825Z,97.84
2023-04-12T08:50:32.538Z,98.87
2023-04-12T08:52:59.593Z,98.35
2023-04-12T08:55:26.248Z,100.00
2023-04-12T08:57:59.831Z,99.80
2023-04-12T09:00:32.269Z,99.32
2023-04-12T09:02:58.964Z,100.00
2023-04-12T09:05:50.231Z,100.00
2023-04-12T09:08:17.546Z,99.27
2023-04-12T09:10:44.104Z,98.61
2023-04-12T09:13:10.638Z,99.47
2023-04-12T09:15:47.650Z,100.00
2023-04-12T09:18:17.141Z,99.95
2023-04-12T09:20:43.820Z,99.20
2023-04-12T09:23:21.448Z,97.44
2023-04-12T09:25:50.181Z,96.47
2023-04-12T09:28:27.940Z,94.30
2023-04-12T09:30:56.229Z,94.41
2023-04-12T09:33:38.145Z,91.72
2023-04-12T09:36:14.222Z,91.90
2023-04-12T09:38:43.012Z,90.69
2023-04-12T09:41:21.517Z,86.63
2023-04-12T09:43:50.311Z,87.98
2023-04-12T09:46:16.961Z,86.48
2023-04-12T09:48:51.700Z,84.92
2023-04-12T09:51:51.472Z,83.85
2023-04-12T09:54:18.440Z,84.91
2023-04-12T09:56:45.696Z,85.05
2023-04-12T09:59:14.146Z,86.48
2023-04-12T10:01:41.756Z,86.13
2023-04-12T10:04:10.179Z,85.17
2023-04-12T10:06:41.264Z,83.54
2023-04-12T10:09:08.906Z,83.54
2023-04-12T10:11:35.777Z,81.08
2023-04-12T10:14:03.205Z,82.51
2023-04-12T10:16:30.804Z,80.50
2023-04-12T10:19:02.188Z,79.57
2023-04-12T10:21:28.907Z,79.82
2023-04-12T10:23:55.631Z,78.70
2023-04-12T10:26:22.083Z,77.36
2023-04-12T10:29:25.330Z,77.07
2023-04-12T10:31:53.059Z,75.21
2023-04-12T10:34:24.791Z,76.81
2023-04-12T10:36:53.526Z,76.49
2023-04-12T10:39:45.118Z,73.86
2023-04-12T10:42:29.209Z,72.95
2023-04-12T10:45:51.738Z,68.76
2023-04-12T10:48:34.861Z,69.77
2023-04-12T10:51:28.644Z,67.55
2023-04-12T10:54:07.390Z,66.66
2023-04-12T10:56:41.342Z,68.28
2023-04-12T10:59:12.239Z,66.38
2023-04-12T11:01:40.469Z,65.79
2023-04-12T11:04:08.203Z,66.60
2023-04-12T11:06:53.504Z,66.50
2023-04-12T11:09:30.060Z,64.39
2023-04-12T11:12:06.497Z,64.14
2023-04-12T11:14:35.066Z,65.56
2023-04-12T11:17:14.533Z,66.88
2023-04-12T11:19:45.185Z,65.04
2023-04-12T11:22:13.956Z,67.79
2023-04-12T11:24:41.229Z,67.92
2023-04-12T11:27:10.421Z,68.74
2023-04-12T11:29:36.925Z,69.95
2023-04-12T11:32:04.724Z,70.29
2023-04-12T11:34:35.431Z,70.00
2023-04-12T11:37:07.946Z,69.74
2023-04-12T11:39:39.528Z,69.17
2023-04-12T11:42:08.646Z,67.52
2023-04-12T11:44:55.127Z,65.64
2023-04-12T11:47:24.238Z,65.41
2023-04-12T11:49:55.617Z,63.61
2023-04-12T11:52:31.258Z,59.83
2023-04-12T11:55:01.403Z,59.66
2023-04-12T11:57:28.992Z,59.72
2023-04-12T11:59:57.492Z,58.58
2023-04-12T12:02:27.661Z,60.27
2023-04-12T12:04:57.194Z,57.58
2023-04-12T12:07:26.766Z,60.15
2023-04-12T12:09:53.978Z,59.52
2023-04-12T12:12:23.994Z,59.90
2023-04-12T12:14:50.582Z,59.94
2023-04-12T12:17:17.420Z,60.24
2023-04-12T12:19:46.246Z,59.51
2023-04-12T12:22:20.305Z,59.79
2023-04-12T12:24:55.748Z,58.83
2023-04-12T12:27:24.108Z,59.32
2023-04-12T12:30:01.124Z,54.57
2023-04-12T12:32:37.903Z,54.23
2023-04-12T12:38:39.285Z,54.28
2023-04-12T12:41:14.639Z,55.73
2023-04-12T12:43:47.728Z,56.16
2023-04-12T12:46:14.967Z,56.97
2023-04-12T12:48:42.027Z,61.30
2023-04-12T12:51:09.841Z,61.24
2023-04-12T12:53:36.882Z,60.68
2023-04-12T12:56:03.334Z,63.05
2023-04-12T12:58:30.291Z,62.68
2023-04-12T13:00:56.702Z,62.03
2023-04-12T13:03:23.489Z,60.81
2023-04-12T13:05:50.740Z,58.51
2023-04-12T13:08:19.381Z,58.32
2023-04-12T13:10:45.848Z,58.04
2023-04-12T13:13:12.242Z,57.01
2023-04-12T13:15:38.869Z,56.64
2023-04-12T13:18:05.591Z,58.58
2023-04-12T13:20:31.973Z,62.47
2023-04-12T13:22:59.007Z,73.14
2023-04-12T13:25:26.622Z,80.17
2023-04-12T13:27:53.135Z,85.77
2023-04-12T13:30:20.115Z,86.04
2023-04-12T13:32:46.820Z,88.07
2023-04-12T13:35:13.708Z,90.50
2023-04-12T13:37:40.382Z,87.99
2023-04-12T13:40:09.109Z,89.56
2023-04-12T13:42:35.642Z,83.98
2023-04-12T13:45:03.795Z,83.89
2023-04-12T13:47:31.431Z,85.75
2023-04-12T13:49:58.084Z,84.98
2023-04-12T13:52:24.552Z,84.62
2023-04-12T13:54:51.535Z,83.61
2023-04-12T13:57:18.180Z,83.24
2023-04-12T13:59:47.205Z,83.43
2023-04-12T14:02:17.360Z,80.11
2023-04-12T14:04:55.139Z,76.93
2023-04-12T14:07:21.820Z,75.62
2023-04-12T14:09:48.860Z,73.26
2023-04-12T14:12:15.683Z,74.56
2023-04-12T14:14:42.397Z,76.50
2023-04-12T14:17:08.922Z,76.74
2023-04-12T14:19:36.063Z,74.24
2023-04-12T14:22:02.660Z,73.04
2023-04-12T14:24:29.183Z,71.99
2023-04-12T14:26:57.090Z,68.72
2023-04-12T14:29:23.577Z,72.59
2023-04-12T14:31:50.243Z,73.30
2023-04-12T14:34:16.702Z,72.91
2023-04-12T14:36:47.364Z,68.33
2023-04-12T14:39:14.926Z,68.66
2023-04-12T14:41:50.706Z,69.06
2023-04-12T14:44:19.614Z,67.05
2023-04-12T14:46:47.003Z,69.82
2023-04-12T14:49:14.259Z,68.60
2023-04-12T14:51:41.134Z,69.90
2023-04-12T14:54:07.744Z,71.44
2023-04-12T14:56:40.987Z,69.87
2023-04-12T14:59:11.619Z,66.53
2023-04-12T15:01:44.434Z,59.63
2023-04-12T15:04:11.305Z,61.60
2023-04-12T15:06:44.647Z,62.17
2023-04-12T15:09:11.474Z,63.14
2023-04-12T15:11:39.927Z,59.46
2023-04-12T15:14:09.949Z,59.61
2023-04-12T15:16:36.602Z,59.40
2023-04-12T15:19:10.751Z,59.80
2023-04-12T15:21:43.533Z,60.14
2023-04-12T15:24:09.994Z,58.94
2023-04-12T15:26:39.243Z,58.90
2023-04-12T15:29:06.931Z,57.31
2023-04-12T15:31:33.410Z,59.72
2023-04-12T15:34:02.649Z,59.02
2023-04-12T15:36:34.173Z,59.70
2023-04-12T15:39:01.715Z,60.30
2023-04-12T15:41:33.984Z,58.59
2023-04-12T15:44:00.648Z,60.65
2023-04-12T15:46:27.253Z,62.21
2023-04-12T15:48:53.746Z,60.13
2023-04-12T15:51:20.200Z,60.67
2023-04-12T15:53:46.674Z,59.66
2023-04-12T15:56:15.346Z,57.89
2023-04-12T15:58:43.100Z,56.56
2023-04-12T16:01:10.290Z,54.05
2023-04-12T16:03:37.324Z,51.97
2023-04-12T16:06:05.334Z,49.66
2023-04-12T16:08:31.876Z,49.84
2023-04-12T16:10:58.744Z,48.32
2023-04-12T16:13:25.317Z,49.00
2023-04-12T16:15:52.363Z,48.73
2023-04-12T16:18:18.933Z,49.29
2023-04-12T16:20:45.393Z,48.94
2023-04-12T16:23:11.908Z,47.50
2023-04-12T16:25:48.666Z,47.18
2023-04-12T16:28:17.948Z,48.06
2023-04-12T16:30:44.468Z,48.66
2023-04-12T16:33:11.226Z,49.08
2023-04-12T16:35:38.421Z,49.62
2023-04-12T16:38:05.108Z,48.99
2023-04-12T16:40:31.731Z,48.98
2023-04-12T16:42:58.152Z,49.67
2023-04-12T16:45:25.002Z,48.75
2023-04-12T16:47:51.515Z,49.12
2023-04-12T16:50:18.058Z,47.92
2023-04-12T16:52:44.534Z,47.89
2023-04-12T16:55:12.466Z,48.39
2023-04-12T16:57:40.935Z,48.68
2023-04-12T17:00:22.163Z,49.06
2023-04-12T17:02:50.460Z,49.95
2023-04-12T17:05:17.927Z,49.86
2023-04-12T17:07:50.562Z,48.88
2023-04-12T17:10:18.421Z,49.63
2023-04-12T17:12:50.298Z,50.16
2023-04-12T17:15:18.163Z,49.73
2023-04-12T17:17:52.556Z,50.38
2023-04-12T17:20:22.067Z,50.43
2023-04-12T17:22:49.770Z,51.25
2023-04-12T17:25:18.217Z,51.12
2023-04-12T17:27:47.909Z,50.25
2023-04-12T17:30:16.567Z,50.90
2023-04-12T17:32:45.285Z,51.42
2023-04-12T17:35:13.049Z,52.50
2023-04-12T17:37:39.684Z,52.19
2023-04-12T17:40:07.919Z,51.46
2023-04-12T17:42:34.382Z,51.86
2023-04-12T17:45:01.081Z,52.16
2023-04-12T17:47:27.563Z,51.85
2023-04-12T17:49:54.101Z,52.47
2023-04-12T17:52:20.748Z,52.66
2023-04-12T17:54:47.222Z,53.63
2023-04-12T17:57:13.648Z,53.57
2023-04-12T17:59:40.076Z,53.87
2023-04-12T18:02:06.852Z,52.77
2023-04-12T18:04:33.829Z,53.36
2023-04-12T18:07:01.245Z,54.11
2023-04-12T18:09:28.446Z,53.40
2023-04-12T18:11:54.865Z,53.77
2023-04-12T18:14:21.302Z,54.32
2023-04-12T18:16:48.092Z,54.51
2023-04-12T18:19:16.464Z,55.02
2023-04-12T18:21:46.945Z,55.01
2023-04-12T18:24:13.387Z,55.69
2023-04-12T18:26:39.860Z,56.27
2023-04-12T18:29:06.443Z,57.12
2023-04-12T18:31:32.966Z,57.15
2023-04-12T18:33:59.479Z,58.42
2023-04-12T18:36:27.132Z,58.10
2023-04-12T18:38:53.497Z,58.49
2023-04-12T18:41:19.900Z,56.76
2023-04-12T18:43:46.508Z,56.96
2023-04-12T18:46:17.636Z,57.63
2023-04-12T18:48:45.700Z,56.85
2023-04-12T18:51:12.979Z,57.17
2023-04-12T18:53:39.342Z,57.33
2023-04-12T18:56:13.656Z,58.25
2023-04-12T18:58:51.100Z,58.38
2023-04-12T19:01:22.038Z,58.58
2023-04-12T19:03:48.722Z,58.30
2023-04-12T19:06:15.347Z,57.62
2023-04-12T19:08:43.064Z,57.09
2023-04-12T19:11:09.712Z,57.70
2023-04-12T19:13:37.065Z,58.13
2023-04-12T19:16:07.315Z,58.01
2023-04-12T19:18:34.325Z,56.97
2023-04-12T19:21:01.898Z,57.45
2023-04-12T19:23:29.066Z,57.71
2023-04-12T19:25:57.457Z,57.09
2023-04-12T19:28:24.447Z,56.59
2023-04-12T19:30:51.036Z,56.81
2023-04-12T19:33:18.173Z,58.96
2023-04-12T19:35:44.569Z,67.73
2023-04-12T19:38:10.934Z,76.88
2023-04-12T19:40:37.555Z,81.73
2023-04-12T19:43:04.508Z,82.88
2023-04-12T19:45:31.218Z,87.21
2023-04-12T19:47:57.830Z,89.90
2023-04-12T19:50:25.914Z,89.08
2023-04-12T19:52:52.645Z,86.20
2023-04-12T19:55:21.289Z,85.25
2023-04-12T19:57:47.838Z,85.38
2023-04-12T20:00:22.570Z,83.02
2023-04-12T20:02:51.148Z,84.25
2023-04-12T20:05:17.859Z,81.42
2023-04-12T20:07:44.421Z,80.86
2023-04-12T20:10:11.856Z,80.49
2023-04-12T20:12:38.513Z,79.66
2023-04-12T20:15:08.196Z,80.24
2023-04-12T20:17:47.949Z,77.35
2023-04-12T20:20:15.440Z,79.16
2023-04-12T20:22:43.534Z,78.90
2023-04-12T20:25:14.498Z,79.23
2023-04-12T20:27:41.105Z,78.57
2023-04-12T20:30:08.937Z,76.72
2023-04-12T20:32:36.030Z,78.90
2023-04-12T20:35:06.452Z,78.67
2023-04-12T20:37:33.686Z,78.53
2023-04-12T20:40:00.746Z,77.79
2023-04-12T20:42:30.854Z,78.48
2023-04-12T20:44:57.431Z,78.00
2023-04-12T20:47:23.932Z,77.93
2023-04-12T20:49:50.686Z,77.66
2023-04-12T20:52:20.428Z,75.88
2023-04-12T20:54:48.276Z,75.92
2023-04-12T20:57:19.597Z,77.01
2023-04-12T20:59:46.679Z,76.38
2023-04-12T21:02:15.325Z,75.10
2023-04-12T21:04:42.006Z,76.55
2023-04-12T21:07:11.608Z,75.90
2023-04-12T21:09:38.660Z,76.63
2023-04-12T21:12:08.264Z,76.88
2023-04-12T21:14:36.097Z,75.53
2023-04-12T21:17:06.630Z,74.42
2023-04-12T21:19:41.670Z,75.40
2023-04-12T21:22:10.427Z,75.08
2023-04-12T21:24:38.607Z,75.03
2023-04-12T21:27:09.564Z,74.69
2023-04-12T21:29:41.336Z,74.23
2023-04-12T21:32:08.854Z,73.98
2023-04-12T21:34:36.995Z,74.74
2023-04-12T21:37:04.166Z,74.16
2023-04-12T21:39:30.983Z,74.26
2023-04-12T21:41:58.119Z,73.57
2023-04-12T21:44:25.354Z,74.21
2023-04-12T21:46:51.874Z,74.58
2023-04-12T21:49:18.362Z,73.30
2023-04-12T21:51:46.355Z,72.52
2023-04-12T21:54:12.866Z,72.22
2023-04-12T21:56:39.321Z,72.16
2023-04-12T21:59:06.968Z,72.97
2023-04-12T22:01:33.938Z,72.36
2023-04-12T22:04:02.580Z,70.67
2023-04-12T22:06:30.362Z,71.51
2023-04-12T22:08:57.147Z,71.35
2023-04-12T22:11:23.709Z,71.55
2023-04-12T22:13:50.169Z,71.46
2023-04-12T22:16:16.864Z,70.18
2023-04-12T22:18:48.110Z,69.28
2023-04-12T22:21:15.260Z,69.33
2023-04-12T22:23:41.623Z,69.90
2023-04-12T22:26:08.667Z,68.89
2023-04-12T22:28:37.798Z,68.41
2023-04-12T22:31:05.725Z,68.33
2023-04-12T22:33:32.308Z,68.72
2023-04-12T22:35:58.859Z,69.02
2023-04-12T22:38:25.407Z,69.20
2023-04-12T22:40:54.561Z,68.54
2023-04-12T22:43:22.742Z,67.49
2023-04-12T22:45:49.116Z,67.90
2023-04-12T22:48:15.528Z,67.77
2023-04-12T22:50:44.682Z,67.98
2023-04-12T22:53:11.450Z,66.84
2023-04-12T22:55:42.115Z,66.57
2023-04-12T22:58:08.530Z,66.64
2023-04-12T23:00:35.175Z,66.29
2023-04-12T23:03:05.417Z,67.27
2023-04-12T23:05:31.963Z,67.33
2023-04-12T23:07:58.961Z,66.54
2023-04-12T23:10:25.407Z,65.40
2023-04-12T23:12:53.434Z,65.48
2023-04-12T23:15:20.531Z,65.47
2023-04-12T23:17:49.791Z,65.08
2023-04-12T23:20:17.065Z,64.61
2023-04-12T23:22:57.937Z,64.91
2023-04-12T23:25:41.525Z,64.32
2023-04-12T23:28:12.538Z,64.13
2023-04-12T23:30:42.546Z,64.34
2023-04-12T23:33:09.396Z,65.04
2023-04-12T23:35:39.253Z,63.52
2023-04-12T23:38:05.739Z,64.67
2023-04-12T23:40:32.093Z,64.44
2023-04-12T23:42:58.590Z,64.62
2023-04-12T23:45:24.975Z,64.85
2023-04-12T23:47:51.611Z,65.04
2023-04-12T23:50:18.142Z,66.16
2023-04-12T23:52:44.885Z,66.83
2023-04-12T23:55:11.251Z,66.41
2023-04-12T23:57:37.679Z,67.36
